sensor_id;sensor_type;location;lat;lon;timestamp;temperature;humidity
23751;DHT22;12055;52.098;13.176;2022-07-06T00:01:14;17.00;99.90
23751;DHT22;12055;52.098;13.176;2022-07-06T00:03:39;17.00;99.90
23751;DHT22;12055;52.098;13.176;2022-07-06T00:06:05;16.90;99.90
23751;DHT22;12055;52.098;13.176;2022-07-06T00:08:30;16.90;99.90
23751;DHT22;12055;52.098;13.176;2022-07-06T00:10:56;16.90;99.90
23751;DHT22;12055;52.098;13.176;2022-07-06T00:13:21;17.00;99.90
23751;DHT22;12055;52.098;13.176;2022-07-06T00:15:47;16.90;99.90
23751;DHT22;12055;52.098;13.176;2022-07-06T00:18:12;16.90;99.90
23751;DHT22;12055;52.098;13.176;2022-07-06T00:20:38;16.90;99.90
23751;DHT22;12055;52.098;13.176;2022-07-06T00:23:03;16.90;99.90
23751;DHT22;12055;52.098;13.176;2022-07-06T00:25:29;16.90;99.90
23751;DHT22;12055;52.098;13.176;2022-07-06T00:27:54;16.80;99.90
23751;DHT22;12055;52.098;13.176;2022-07-06T00:30:20;16.80;99.90
23751;DHT22;12055;52.098;13.176;2022-07-06T00:32:45;16.80;99.90
23751;DHT22;12055;52.098;13.176;2022-07-06T00:35:11;16.80;99.90
23751;DHT22;12055;52.098;13.176;2022-07-06T00:37:36;16.70;99.90
23751;DHT22;12055;52.098;13.176;2022-07-06T00:40:02;16.60;99.90
23751;DHT22;12055;52.098;13.176;2022-07-06T00:42:28;16.60;99.90
23751;DHT22;12055;52.098;13.176;2022-07-06T00:44:53;16.50;99.90
23751;DHT22;12055;52.098;13.176;2022-07-06T00:47:18;16.50;99.90
23751;DHT22;12055;52.098;13.176;2022-07-06T00:49:44;16.40;99.90
23751;DHT22;12055;52.098;13.176;2022-07-06T00:52:28;16.20;99.90
23751;DHT22;12055;52.098;13.176;2022-07-06T00:54:54;16.20;99.90
23751;DHT22;12055;52.098;13.176;2022-07-06T00:57:20;16.00;99.90
23751;DHT22;12055;52.098;13.176;2022-07-06T00:59:45;15.90;99.90
23751;DHT22;12055;52.098;13.176;2022-07-06T01:02:11;15.70;99.90
23751;DHT22;12055;52.098;13.176;2022-07-06T01:04:36;15.60;99.90
23751;DHT22;12055;52.098;13.176;2022-07-06T01:07:02;15.40;99.90
23751;DHT22;12055;52.098;13.176;2022-07-06T01:09:28;15.40;99.90
23751;DHT22;12055;52.098;13.176;2022-07-06T01:11:53;15.40;99.90
23751;DHT22;12055;52.098;13.176;2022-07-06T01:14:20;15.50;99.90
23751;DHT22;12055;52.098;13.176;2022-07-06T01:16:45;15.60;99.90
23751;DHT22;12055;52.098;13.176;2022-07-06T01:19:11;15.60;99.90
23751;DHT22;12055;52.098;13.176;2022-07-06T01:21:40;15.70;99.90
23751;DHT22;12055;52.098;13.176;2022-07-06T01:24:06;15.70;99.90
23751;DHT22;12055;52.098;13.176;2022-07-06T01:26:31;15.70;99.90
23751;DHT22;12055;52.098;13.176;2022-07-06T01:28:57;15.80;99.90
23751;DHT22;12055;52.098;13.176;2022-07-06T01:31:26;15.80;99.90
23751;DHT22;12055;52.098;13.176;2022-07-06T01:33:56;15.80;99.90
23751;DHT22;12055;52.098;13.176;2022-07-06T01:36:22;15.80;99.90
23751;DHT22;12055;52.098;13.176;2022-07-06T01:38:50;15.80;99.90
23751;DHT22;12055;52.098;13.176;2022-07-06T01:41:16;15.70;99.90
23751;DHT22;12055;52.098;13.176;2022-07-06T01:43:42;15.70;99.90
23751;DHT22;12055;52.098;13.176;2022-07-06T01:46:08;15.60;99.90
23751;DHT22;12055;52.098;13.176;2022-07-06T01:48:34;15.60;99.90
23751;DHT22;12055;52.098;13.176;2022-07-06T01:51:00;15.50;99.90
23751;DHT22;12055;52.098;13.176;2022-07-06T01:53:25;15.50;99.90
23751;DHT22;12055;52.098;13.176;2022-07-06T01:55:51;15.40;99.90
23751;DHT22;12055;52.098;13.176;2022-07-06T01:58:16;15.50;99.90
23751;DHT22;12055;52.098;13.176;2022-07-06T02:00:42;15.60;99.90
23751;DHT22;12055;52.098;13.176;2022-07-06T02:03:08;15.60;99.90
23751;DHT22;12055;52.098;13.176;2022-07-06T02:05:33;15.60;99.90
23751;DHT22;12055;52.098;13.176;2022-07-06T02:07:59;15.70;99.90
23751;DHT22;12055;52.098;13.176;2022-07-06T02:10:24;15.70;99.90
23751;DHT22;12055;52.098;13.176;2022-07-06T02:12:50;15.70;99.90
23751;DHT22;12055;52.098;13.176;2022-07-06T02:15:15;15.90;99.90
23751;DHT22;12055;52.098;13.176;2022-07-06T02:17:41;15.90;99.90
23751;DHT22;12055;52.098;13.176;2022-07-06T02:20:07;15.90;99.90
23751;DHT22;12055;52.098;13.176;2022-07-06T02:22:33;15.90;99.90
23751;DHT22;12055;52.098;13.176;2022-07-06T02:24:58;15.90;99.90
23751;DHT22;12055;52.098;13.176;2022-07-06T02:27:24;16.00;99.90
23751;DHT22;12055;52.098;13.176;2022-07-06T02:29:50;16.00;99.90
23751;DHT22;12055;52.098;13.176;2022-07-06T02:32:16;16.00;99.90
23751;DHT22;12055;52.098;13.176;2022-07-06T02:34:41;16.00;99.90
23751;DHT22;12055;52.098;13.176;2022-07-06T02:37:07;16.00;99.90
23751;DHT22;12055;52.098;13.176;2022-07-06T02:39:32;16.00;99.90
23751;DHT22;12055;52.098;13.176;2022-07-06T02:41:58;15.90;99.90
23751;DHT22;12055;52.098;13.176;2022-07-06T02:44:23;15.80;99.90
23751;DHT22;12055;52.098;13.176;2022-07-06T02:46:48;15.80;99.90
23751;DHT22;12055;52.098;13.176;2022-07-06T02:49:14;15.70;99.90
23751;DHT22;12055;52.098;13.176;2022-07-06T02:51:39;15.60;99.90
23751;DHT22;12055;52.098;13.176;2022-07-06T02:54:05;15.50;99.90
23751;DHT22;12055;52.098;13.176;2022-07-06T02:56:30;15.40;99.90
23751;DHT22;12055;52.098;13.176;2022-07-06T02:58:56;15.30;99.90
23751;DHT22;12055;52.098;13.176;2022-07-06T03:01:21;15.20;99.90
23751;DHT22;12055;52.098;13.176;2022-07-06T03:03:47;15.10;99.90
23751;DHT22;12055;52.098;13.176;2022-07-06T03:06:12;15.10;99.90
23751;DHT22;12055;52.098;13.176;2022-07-06T03:08:38;15.10;99.90
23751;DHT22;12055;52.098;13.176;2022-07-06T03:11:03;15.00;99.90
23751;DHT22;12055;52.098;13.176;2022-07-06T03:13:29;14.90;99.90
23751;DHT22;12055;52.098;13.176;2022-07-06T03:15:55;14.80;99.90
23751;DHT22;12055;52.098;13.176;2022-07-06T03:18:22;14.80;99.90
23751;DHT22;12055;52.098;13.176;2022-07-06T03:20:47;14.70;99.90
23751;DHT22;12055;52.098;13.176;2022-07-06T03:23:13;14.70;99.90
23751;DHT22;12055;52.098;13.176;2022-07-06T03:25:38;14.60;99.90
23751;DHT22;12055;52.098;13.176;2022-07-06T03:28:04;14.60;99.90
23751;DHT22;12055;52.098;13.176;2022-07-06T03:30:29;14.50;99.90
23751;DHT22;12055;52.098;13.176;2022-07-06T03:32:54;14.50;99.90
23751;DHT22;12055;52.098;13.176;2022-07-06T03:35:20;14.40;99.90
23751;DHT22;12055;52.098;13.176;2022-07-06T03:37:45;14.40;99.90
23751;DHT22;12055;52.098;13.176;2022-07-06T03:40:11;14.50;99.90
23751;DHT22;12055;52.098;13.176;2022-07-06T03:42:38;14.60;99.90
23751;DHT22;12055;52.098;13.176;2022-07-06T03:45:04;14.70;99.90
23751;DHT22;12055;52.098;13.176;2022-07-06T03:47:30;14.80;99.90
23751;DHT22;12055;52.098;13.176;2022-07-06T03:49:56;15.00;99.90
23751;DHT22;12055;52.098;13.176;2022-07-06T03:52:21;15.10;99.90
23751;DHT22;12055;52.098;13.176;2022-07-06T03:54:47;15.30;99.90
23751;DHT22;12055;52.098;13.176;2022-07-06T03:57:12;15.60;99.90
23751;DHT22;12055;52.098;13.176;2022-07-06T03:59:39;15.80;99.90
23751;DHT22;12055;52.098;13.176;2022-07-06T04:02:05;15.90;99.90
23751;DHT22;12055;52.098;13.176;2022-07-06T04:04:31;16.00;99.90
23751;DHT22;12055;52.098;13.176;2022-07-06T04:06:56;16.10;99.90
23751;DHT22;12055;52.098;13.176;2022-07-06T04:09:22;16.20;99.90
23751;DHT22;12055;52.098;13.176;2022-07-06T04:11:47;16.20;99.90
23751;DHT22;12055;52.098;13.176;2022-07-06T04:14:13;16.20;99.90
23751;DHT22;12055;52.098;13.176;2022-07-06T04:16:38;16.20;99.90
23751;DHT22;12055;52.098;13.176;2022-07-06T04:19:04;16.20;99.90
23751;DHT22;12055;52.098;13.176;2022-07-06T04:21:29;16.20;99.90
23751;DHT22;12055;52.098;13.176;2022-07-06T04:23:54;16.10;99.90
23751;DHT22;12055;52.098;13.176;2022-07-06T04:26:20;16.10;99.90
23751;DHT22;12055;52.098;13.176;2022-07-06T04:28:45;16.00;99.90
23751;DHT22;12055;52.098;13.176;2022-07-06T04:31:11;15.90;99.90
23751;DHT22;12055;52.098;13.176;2022-07-06T04:33:41;15.90;99.90
23751;DHT22;12055;52.098;13.176;2022-07-06T04:36:07;15.80;99.90
23751;DHT22;12055;52.098;13.176;2022-07-06T04:38:32;16.00;99.90
23751;DHT22;12055;52.098;13.176;2022-07-06T04:40:58;16.30;99.90
23751;DHT22;12055;52.098;13.176;2022-07-06T04:43:23;16.70;99.90
23751;DHT22;12055;52.098;13.176;2022-07-06T04:45:48;17.30;99.90
23751;DHT22;12055;52.098;13.176;2022-07-06T04:48:14;17.60;99.90
23751;DHT22;12055;52.098;13.176;2022-07-06T04:50:39;17.60;99.90
23751;DHT22;12055;52.098;13.176;2022-07-06T04:53:05;17.60;99.90
23751;DHT22;12055;52.098;13.176;2022-07-06T04:55:30;17.70;99.90
23751;DHT22;12055;52.098;13.176;2022-07-06T04:57:56;18.10;99.90
23751;DHT22;12055;52.098;13.176;2022-07-06T05:00:21;18.40;99.90
23751;DHT22;12055;52.098;13.176;2022-07-06T05:02:47;18.60;99.90
23751;DHT22;12055;52.098;13.176;2022-07-06T05:05:12;18.90;99.90
23751;DHT22;12055;52.098;13.176;2022-07-06T05:07:38;19.20;99.90
23751;DHT22;12055;52.098;13.176;2022-07-06T05:10:07;19.40;99.90
23751;DHT22;12055;52.098;13.176;2022-07-06T05:12:32;19.70;99.90
23751;DHT22;12055;52.098;13.176;2022-07-06T05:14:58;20.00;99.90
23751;DHT22;12055;52.098;13.176;2022-07-06T05:17:24;20.30;99.90
23751;DHT22;12055;52.098;13.176;2022-07-06T05:19:49;20.20;99.90
23751;DHT22;12055;52.098;13.176;2022-07-06T05:22:15;19.50;99.90
23751;DHT22;12055;52.098;13.176;2022-07-06T05:24:40;19.10;99.90
23751;DHT22;12055;52.098;13.176;2022-07-06T05:27:06;18.60;99.90
23751;DHT22;12055;52.098;13.176;2022-07-06T05:29:31;18.50;99.90
23751;DHT22;12055;52.098;13.176;2022-07-06T05:31:57;18.80;99.90
23751;DHT22;12055;52.098;13.176;2022-07-06T05:34:22;19.50;99.90
23751;DHT22;12055;52.098;13.176;2022-07-06T05:36:47;19.70;99.90
23751;DHT22;12055;52.098;13.176;2022-07-06T05:39:13;20.00;99.90
23751;DHT22;12055;52.098;13.176;2022-07-06T05:41:38;19.90;99.90
23751;DHT22;12055;52.098;13.176;2022-07-06T05:44:04;20.20;99.90
23751;DHT22;12055;52.098;13.176;2022-07-06T05:46:29;20.00;99.90
23751;DHT22;12055;52.098;13.176;2022-07-06T05:48:55;19.60;99.90
23751;DHT22;12055;52.098;13.176;2022-07-06T05:51:39;19.20;99.90
23751;DHT22;12055;52.098;13.176;2022-07-06T05:54:04;19.20;99.90
23751;DHT22;12055;52.098;13.176;2022-07-06T05:56:30;19.70;99.90
23751;DHT22;12055;52.098;13.176;2022-07-06T05:58:55;19.90;99.90
23751;DHT22;12055;52.098;13.176;2022-07-06T06:01:20;19.60;99.90
23751;DHT22;12055;52.098;13.176;2022-07-06T06:03:46;19.30;99.90
23751;DHT22;12055;52.098;13.176;2022-07-06T06:06:11;19.00;99.90
23751;DHT22;12055;52.098;13.176;2022-07-06T06:08:37;18.70;99.90
23751;DHT22;12055;52.098;13.176;2022-07-06T06:11:02;18.50;99.90
23751;DHT22;12055;52.098;13.176;2022-07-06T06:13:28;18.70;99.90
23751;DHT22;12055;52.098;13.176;2022-07-06T06:15:53;18.90;99.90
23751;DHT22;12055;52.098;13.176;2022-07-06T06:18:19;19.50;99.90
23751;DHT22;12055;52.098;13.176;2022-07-06T06:20:45;20.20;99.90
23751;DHT22;12055;52.098;13.176;2022-07-06T06:23:10;20.90;99.90
23751;DHT22;12055;52.098;13.176;2022-07-06T06:25:39;20.80;99.90
23751;DHT22;12055;52.098;13.176;2022-07-06T06:28:06;20.40;99.90
23751;DHT22;12055;52.098;13.176;2022-07-06T06:30:32;19.90;99.90
23751;DHT22;12055;52.098;13.176;2022-07-06T06:33:14;19.60;99.90
23751;DHT22;12055;52.098;13.176;2022-07-06T06:35:45;19.30;99.90
23751;DHT22;12055;52.098;13.176;2022-07-06T06:38:11;19.20;99.90
23751;DHT22;12055;52.098;13.176;2022-07-06T06:40:37;19.50;99.90
23751;DHT22;12055;52.098;13.176;2022-07-06T06:43:03;20.10;99.90
23751;DHT22;12055;52.098;13.176;2022-07-06T06:45:29;20.70;99.90
23751;DHT22;12055;52.098;13.176;2022-07-06T06:47:54;21.20;99.90
23751;DHT22;12055;52.098;13.176;2022-07-06T06:50:20;21.10;99.90
23751;DHT22;12055;52.098;13.176;2022-07-06T06:52:46;20.60;99.90
23751;DHT22;12055;52.098;13.176;2022-07-06T06:55:11;20.40;99.90
23751;DHT22;12055;52.098;13.176;2022-07-06T06:57:37;20.00;99.90
23751;DHT22;12055;52.098;13.176;2022-07-06T07:00:04;20.20;99.90
23751;DHT22;12055;52.098;13.176;2022-07-06T07:02:29;21.10;99.90
23751;DHT22;12055;52.098;13.176;2022-07-06T07:04:55;21.40;99.90
23751;DHT22;12055;52.098;13.176;2022-07-06T07:07:20;21.90;99.90
23751;DHT22;12055;52.098;13.176;2022-07-06T07:09:46;22.30;99.90
23751;DHT22;12055;52.098;13.176;2022-07-06T07:12:11;22.30;99.90
23751;DHT22;12055;52.098;13.176;2022-07-06T07:14:37;22.70;99.90
23751;DHT22;12055;52.098;13.176;2022-07-06T07:17:03;23.30;99.90
23751;DHT22;12055;52.098;13.176;2022-07-06T07:19:28;23.00;99.90
23751;DHT22;12055;52.098;13.176;2022-07-06T07:21:54;22.80;99.90
23751;DHT22;12055;52.098;13.176;2022-07-06T07:24:19;22.70;99.90
23751;DHT22;12055;52.098;13.176;2022-07-06T07:26:45;22.80;99.90
23751;DHT22;12055;52.098;13.176;2022-07-06T07:29:10;22.10;99.90
23751;DHT22;12055;52.098;13.176;2022-07-06T07:31:36;21.70;99.90
23751;DHT22;12055;52.098;13.176;2022-07-06T07:34:02;21.70;99.90
23751;DHT22;12055;52.098;13.176;2022-07-06T07:36:27;22.10;99.90
23751;DHT22;12055;52.098;13.176;2022-07-06T07:38:53;22.00;99.90
23751;DHT22;12055;52.098;13.176;2022-07-06T07:41:18;21.60;99.90
23751;DHT22;12055;52.098;13.176;2022-07-06T07:43:44;21.80;99.90
23751;DHT22;12055;52.098;13.176;2022-07-06T07:46:09;21.10;99.90
23751;DHT22;12055;52.098;13.176;2022-07-06T07:48:35;20.80;99.90
23751;DHT22;12055;52.098;13.176;2022-07-06T07:51:01;20.50;99.90
23751;DHT22;12055;52.098;13.176;2022-07-06T07:53:26;20.50;99.90
23751;DHT22;12055;52.098;13.176;2022-07-06T07:55:52;21.30;99.90
23751;DHT22;12055;52.098;13.176;2022-07-06T07:58:18;21.90;99.90
23751;DHT22;12055;52.098;13.176;2022-07-06T08:00:44;22.70;99.90
23751;DHT22;12055;52.098;13.176;2022-07-06T08:03:11;23.60;99.90
23751;DHT22;12055;52.098;13.176;2022-07-06T08:05:36;23.10;99.90
23751;DHT22;12055;52.098;13.176;2022-07-06T08:08:02;23.00;99.90
23751;DHT22;12055;52.098;13.176;2022-07-06T08:10:28;23.20;99.90
23751;DHT22;12055;52.098;13.176;2022-07-06T08:12:53;24.10;99.90
23751;DHT22;12055;52.098;13.176;2022-07-06T08:15:19;23.40;99.90
23751;DHT22;12055;52.098;13.176;2022-07-06T08:17:44;23.10;99.90
23751;DHT22;12055;52.098;13.176;2022-07-06T08:20:10;23.30;99.30
23751;DHT22;12055;52.098;13.176;2022-07-06T08:22:36;22.70;99.90
23751;DHT22;12055;52.098;13.176;2022-07-06T08:25:02;22.20;99.90
23751;DHT22;12055;52.098;13.176;2022-07-06T08:27:28;22.00;99.90
23751;DHT22;12055;52.098;13.176;2022-07-06T08:29:53;21.60;99.50
23751;DHT22;12055;52.098;13.176;2022-07-06T08:32:19;21.00;99.40
23751;DHT22;12055;52.098;13.176;2022-07-06T08:34:45;20.80;99.90
23751;DHT22;12055;52.098;13.176;2022-07-06T08:37:11;21.10;99.90
23751;DHT22;12055;52.098;13.176;2022-07-06T08:39:37;22.00;99.90
23751;DHT22;12055;52.098;13.176;2022-07-06T08:42:02;22.70;99.90
23751;DHT22;12055;52.098;13.176;2022-07-06T08:44:29;23.00;98.80
23751;DHT22;12055;52.098;13.176;2022-07-06T08:46:57;22.70;96.90
23751;DHT22;12055;52.098;13.176;2022-07-06T08:49:23;23.40;97.80
23751;DHT22;12055;52.098;13.176;2022-07-06T08:51:50;23.60;97.60
23751;DHT22;12055;52.098;13.176;2022-07-06T08:54:17;23.00;97.80
23751;DHT22;12055;52.098;13.176;2022-07-06T08:56:43;22.30;96.40
23751;DHT22;12055;52.098;13.176;2022-07-06T08:59:09;21.30;97.60
23751;DHT22;12055;52.098;13.176;2022-07-06T09:01:37;20.80;99.00
23751;DHT22;12055;52.098;13.176;2022-07-06T09:04:05;20.60;99.20
23751;DHT22;12055;52.098;13.176;2022-07-06T09:06:32;20.60;99.90
23751;DHT22;12055;52.098;13.176;2022-07-06T09:08:58;20.60;99.80
23751;DHT22;12055;52.098;13.176;2022-07-06T09:11:25;20.80;99.90
23751;DHT22;12055;52.098;13.176;2022-07-06T09:13:51;20.90;98.70
23751;DHT22;12055;52.098;13.176;2022-07-06T09:16:17;21.10;99.20
23751;DHT22;12055;52.098;13.176;2022-07-06T09:18:46;21.70;99.80
23751;DHT22;12055;52.098;13.176;2022-07-06T09:21:22;22.70;99.20
23751;DHT22;12055;52.098;13.176;2022-07-06T09:23:56;22.60;98.50
23751;DHT22;12055;52.098;13.176;2022-07-06T09:26:23;22.50;99.00
23751;DHT22;12055;52.098;13.176;2022-07-06T09:28:49;22.40;99.20
23751;DHT22;12055;52.098;13.176;2022-07-06T09:31:15;22.70;99.30
23751;DHT22;12055;52.098;13.176;2022-07-06T09:33:56;23.00;98.50
23751;DHT22;12055;52.098;13.176;2022-07-06T09:36:45;22.30;98.50
23751;DHT22;12055;52.098;13.176;2022-07-06T09:39:16;22.80;98.40
23751;DHT22;12055;52.098;13.176;2022-07-06T09:41:41;23.70;98.00
23751;DHT22;12055;52.098;13.176;2022-07-06T09:44:07;24.20;94.70
23751;DHT22;12055;52.098;13.176;2022-07-06T09:46:41;23.70;91.40
23751;DHT22;12055;52.098;13.176;2022-07-06T09:49:07;22.90;92.20
23751;DHT22;12055;52.098;13.176;2022-07-06T09:51:36;22.60;91.50
23751;DHT22;12055;52.098;13.176;2022-07-06T09:54:06;22.50;91.90
23751;DHT22;12055;52.098;13.176;2022-07-06T09:56:39;22.00;92.50
23751;DHT22;12055;52.098;13.176;2022-07-06T09:59:15;22.00;93.10
23751;DHT22;12055;52.098;13.176;2022-07-06T10:01:41;22.10;92.90
23751;DHT22;12055;52.098;13.176;2022-07-06T10:04:08;22.20;93.40
23751;DHT22;12055;52.098;13.176;2022-07-06T10:06:35;22.10;93.30
23751;DHT22;12055;52.098;13.176;2022-07-06T10:09:00;22.10;94.00
23751;DHT22;12055;52.098;13.176;2022-07-06T10:11:28;22.30;95.10
23751;DHT22;12055;52.098;13.176;2022-07-06T10:13:57;22.70;94.90
23751;DHT22;12055;52.098;13.176;2022-07-06T10:16:24;22.80;95.60
23751;DHT22;12055;52.098;13.176;2022-07-06T10:18:51;22.70;95.00
23751;DHT22;12055;52.098;13.176;2022-07-06T10:21:20;22.10;96.10
23751;DHT22;12055;52.098;13.176;2022-07-06T10:23:46;21.90;97.00
23751;DHT22;12055;52.098;13.176;2022-07-06T10:26:12;21.90;97.70
23751;DHT22;12055;52.098;13.176;2022-07-06T10:28:39;22.00;97.40
23751;DHT22;12055;52.098;13.176;2022-07-06T10:31:05;22.20;97.90
23751;DHT22;12055;52.098;13.176;2022-07-06T10:33:32;22.20;96.30
23751;DHT22;12055;52.098;13.176;2022-07-06T10:35:58;22.30;97.20
23751;DHT22;12055;52.098;13.176;2022-07-06T10:38:34;22.30;96.70
23751;DHT22;12055;52.098;13.176;2022-07-06T10:41:07;22.20;97.40
23751;DHT22;12055;52.098;13.176;2022-07-06T10:43:42;22.30;98.60
23751;DHT22;12055;52.098;13.176;2022-07-06T10:46:13;22.60;96.80
23751;DHT22;12055;52.098;13.176;2022-07-06T10:48:41;22.70;97.00
23751;DHT22;12055;52.098;13.176;2022-07-06T10:51:07;22.80;97.70
23751;DHT22;12055;52.098;13.176;2022-07-06T10:53:35;22.60;96.50
23751;DHT22;12055;52.098;13.176;2022-07-06T10:56:06;22.90;96.60
23751;DHT22;12055;52.098;13.176;2022-07-06T10:58:48;22.60;95.10
23751;DHT22;12055;52.098;13.176;2022-07-06T11:01:17;23.10;95.30
23751;DHT22;12055;52.098;13.176;2022-07-06T11:06:23;24.70;93.80
23751;DHT22;12055;52.098;13.176;2022-07-06T11:08:57;24.70;91.40
23751;DHT22;12055;52.098;13.176;2022-07-06T11:13:55;23.30;93.10
23751;DHT22;12055;52.098;13.176;2022-07-06T11:16:24;22.90;91.40
23751;DHT22;12055;52.098;13.176;2022-07-06T11:21:35;22.60;91.40
23751;DHT22;12055;52.098;13.176;2022-07-06T11:24:01;22.70;91.20
23751;DHT22;12055;52.098;13.176;2022-07-06T11:26:27;22.80;91.00
23751;DHT22;12055;52.098;13.176;2022-07-06T11:28:53;22.80;91.00
23751;DHT22;12055;52.098;13.176;2022-07-06T11:31:19;23.10;91.90
23751;DHT22;12055;52.098;13.176;2022-07-06T11:33:46;22.90;91.10
23751;DHT22;12055;52.098;13.176;2022-07-06T11:36:12;23.00;92.20
23751;DHT22;12055;52.098;13.176;2022-07-06T11:38:38;23.20;91.00
23751;DHT22;12055;52.098;13.176;2022-07-06T11:41:03;23.30;91.40
23751;DHT22;12055;52.098;13.176;2022-07-06T11:43:29;23.60;91.40
23751;DHT22;12055;52.098;13.176;2022-07-06T11:45:54;23.60;91.30
23751;DHT22;12055;52.098;13.176;2022-07-06T11:48:20;23.70;91.00
23751;DHT22;12055;52.098;13.176;2022-07-06T11:50:58;23.50;90.80
23751;DHT22;12055;52.098;13.176;2022-07-06T11:53:23;23.30;91.80
23751;DHT22;12055;52.098;13.176;2022-07-06T11:55:49;23.30;90.70
23751;DHT22;12055;52.098;13.176;2022-07-06T11:58:15;23.10;91.50
23751;DHT22;12055;52.098;13.176;2022-07-06T12:00:41;23.30;91.90
23751;DHT22;12055;52.098;13.176;2022-07-06T12:03:06;23.40;92.30
23751;DHT22;12055;52.098;13.176;2022-07-06T12:05:32;23.60;91.70
23751;DHT22;12055;52.098;13.176;2022-07-06T12:08:05;23.70;92.10
23751;DHT22;12055;52.098;13.176;2022-07-06T12:10:34;24.50;91.90
23751;DHT22;12055;52.098;13.176;2022-07-06T12:13:06;24.90;91.70
23751;DHT22;12055;52.098;13.176;2022-07-06T12:15:31;25.20;89.60
23751;DHT22;12055;52.098;13.176;2022-07-06T12:17:56;25.30;89.90
23751;DHT22;12055;52.098;13.176;2022-07-06T12:20:22;25.30;90.20
23751;DHT22;12055;52.098;13.176;2022-07-06T12:22:49;25.40;90.80
23751;DHT22;12055;52.098;13.176;2022-07-06T12:25:32;26.00;90.70
23751;DHT22;12055;52.098;13.176;2022-07-06T12:27:58;26.10;86.80
23751;DHT22;12055;52.098;13.176;2022-07-06T12:30:24;25.50;89.50
23751;DHT22;12055;52.098;13.176;2022-07-06T12:33:14;24.40;90.00
23751;DHT22;12055;52.098;13.176;2022-07-06T12:35:45;23.70;90.60
23751;DHT22;12055;52.098;13.176;2022-07-06T12:38:11;23.30;90.80
23751;DHT22;12055;52.098;13.176;2022-07-06T12:40:37;23.00;91.80
23751;DHT22;12055;52.098;13.176;2022-07-06T12:43:04;23.10;91.50
23751;DHT22;12055;52.098;13.176;2022-07-06T12:45:31;22.80;91.40
23751;DHT22;12055;52.098;13.176;2022-07-06T12:48:04;22.60;91.80
23751;DHT22;12055;52.098;13.176;2022-07-06T12:50:35;22.50;92.50
23751;DHT22;12055;52.098;13.176;2022-07-06T12:53:02;22.50;92.40
23751;DHT22;12055;52.098;13.176;2022-07-06T12:55:29;22.40;92.60
23751;DHT22;12055;52.098;13.176;2022-07-06T12:57:55;22.60;93.00
23751;DHT22;12055;52.098;13.176;2022-07-06T13:00:22;22.80;92.70
23751;DHT22;12055;52.098;13.176;2022-07-06T13:02:50;22.60;90.60
23751;DHT22;12055;52.098;13.176;2022-07-06T13:05:22;22.70;92.00
23751;DHT22;12055;52.098;13.176;2022-07-06T13:07:54;23.00;92.40
23751;DHT22;12055;52.098;13.176;2022-07-06T13:10:21;23.10;93.00
23751;DHT22;12055;52.098;13.176;2022-07-06T13:12:46;23.20;91.80
23751;DHT22;12055;52.098;13.176;2022-07-06T13:15:12;23.50;91.20
23751;DHT22;12055;52.098;13.176;2022-07-06T13:17:38;23.70;90.90
23751;DHT22;12055;52.098;13.176;2022-07-06T13:20:08;24.20;91.80
23751;DHT22;12055;52.098;13.176;2022-07-06T13:22:34;24.50;90.80
23751;DHT22;12055;52.098;13.176;2022-07-06T13:25:00;24.60;89.40
23751;DHT22;12055;52.098;13.176;2022-07-06T13:27:26;24.30;90.40
23751;DHT22;12055;52.098;13.176;2022-07-06T13:29:51;24.50;89.80
23751;DHT22;12055;52.098;13.176;2022-07-06T13:32:17;24.60;90.10
23751;DHT22;12055;52.098;13.176;2022-07-06T13:34:42;24.80;88.60
23751;DHT22;12055;52.098;13.176;2022-07-06T13:37:08;25.10;90.20
23751;DHT22;12055;52.098;13.176;2022-07-06T13:39:33;24.90;87.80
23751;DHT22;12055;52.098;13.176;2022-07-06T13:41:59;24.80;90.00
23751;DHT22;12055;52.098;13.176;2022-07-06T13:44:25;25.10;86.30
23751;DHT22;12055;52.098;13.176;2022-07-06T13:46:51;24.90;86.50
23751;DHT22;12055;52.098;13.176;2022-07-06T13:49:16;24.50;84.60
23751;DHT22;12055;52.098;13.176;2022-07-06T13:51:42;24.00;88.00
23751;DHT22;12055;52.098;13.176;2022-07-06T13:54:08;23.70;88.50
23751;DHT22;12055;52.098;13.176;2022-07-06T13:56:34;23.50;89.30
23751;DHT22;12055;52.098;13.176;2022-07-06T13:58:59;23.50;89.80
23751;DHT22;12055;52.098;13.176;2022-07-06T14:01:25;23.50;89.20
23751;DHT22;12055;52.098;13.176;2022-07-06T14:03:51;23.50;87.20
23751;DHT22;12055;52.098;13.176;2022-07-06T14:06:17;23.40;88.10
23751;DHT22;12055;52.098;13.176;2022-07-06T14:08:43;23.50;89.10
23751;DHT22;12055;52.098;13.176;2022-07-06T14:11:09;23.50;89.60
23751;DHT22;12055;52.098;13.176;2022-07-06T14:13:36;23.60;88.50
23751;DHT22;12055;52.098;13.176;2022-07-06T14:16:02;23.40;88.20
23751;DHT22;12055;52.098;13.176;2022-07-06T14:18:28;23.30;87.60
23751;DHT22;12055;52.098;13.176;2022-07-06T14:20:54;23.30;90.10
23751;DHT22;12055;52.098;13.176;2022-07-06T14:23:20;23.30;89.90
23751;DHT22;12055;52.098;13.176;2022-07-06T14:25:46;23.40;89.50
23751;DHT22;12055;52.098;13.176;2022-07-06T14:28:12;23.70;90.00
23751;DHT22;12055;52.098;13.176;2022-07-06T14:30:39;24.00;88.40
23751;DHT22;12055;52.098;13.176;2022-07-06T14:33:05;23.90;89.10
23751;DHT22;12055;52.098;13.176;2022-07-06T14:35:39;23.90;89.00
23751;DHT22;12055;52.098;13.176;2022-07-06T14:38:06;24.00;89.30
23751;DHT22;12055;52.098;13.176;2022-07-06T14:40:34;24.30;88.10
23751;DHT22;12055;52.098;13.176;2022-07-06T14:43:00;24.40;89.00
23751;DHT22;12055;52.098;13.176;2022-07-06T14:45:26;24.00;89.40
23751;DHT22;12055;52.098;13.176;2022-07-06T14:47:51;23.50;89.90
23751;DHT22;12055;52.098;13.176;2022-07-06T14:50:17;23.00;89.20
23751;DHT22;12055;52.098;13.176;2022-07-06T14:52:43;22.90;90.00
23751;DHT22;12055;52.098;13.176;2022-07-06T14:55:09;22.90;89.60
23751;DHT22;12055;52.098;13.176;2022-07-06T14:57:34;23.00;89.90
23751;DHT22;12055;52.098;13.176;2022-07-06T14:59:59;23.20;88.80
23751;DHT22;12055;52.098;13.176;2022-07-06T15:02:25;23.60;89.10
23751;DHT22;12055;52.098;13.176;2022-07-06T15:04:51;24.10;86.10
23751;DHT22;12055;52.098;13.176;2022-07-06T15:07:16;23.90;84.20
23751;DHT22;12055;52.098;13.176;2022-07-06T15:09:42;23.50;85.10
23751;DHT22;12055;52.098;13.176;2022-07-06T15:12:08;23.20;88.60
23751;DHT22;12055;52.098;13.176;2022-07-06T15:14:34;23.10;88.30
23751;DHT22;12055;52.098;13.176;2022-07-06T15:16:59;23.00;89.70
23751;DHT22;12055;52.098;13.176;2022-07-06T15:19:25;22.70;90.50